Millhaven, Canada
Current Conditions -  °F | °C
As of 5:00 PM on Saturday 20 Dec 2014 (Local Time) from CYGK Reporting Station
Broken Clouds Broken Clouds  
Wind Chill: 25°   Ceiling: 25000
Heat Index: 25°   Visibility: 15mi
Dew Point: 14°   Wind: 3mph
Humidity: 64%   Direction: 30°NNE
Pressure: 30.28"   Gusts: NA
Location:  44.2°N, 76.75°W
Report Text: CYGK 202200Z 03003KT 15SM SCT095 BKN250 M04/M10 A3028 RMK AC4CI1 SLP261
Loading
Personal Weather Stations






























Interactive Weather Map New forecast layout! Learn more

10-Day Weather Forecast

Advertisements
Track Severe Weather on mobile